createdAt,value
2016-08-06T04:56:14.194Z,82.3
2016-08-06T04:56:24.881Z,82.3
2016-08-06T04:56:34.209Z,82.2
2016-08-06T04:56:44.213Z,82.3
2016-08-06T04:56:54.219Z,82.3
2016-08-06T04:57:04.225Z,82.3
2016-08-06T04:57:14.230Z,82.3
2016-08-06T04:57:24.279Z,82.2
2016-08-06T04:57:34.253Z,82.2
2016-08-06T04:57:44.249Z,82.3
2016-08-06T04:57:54.258Z,82.4
2016-08-06T04:58:04.329Z,82.3
2016-08-06T04:58:14.269Z,82.3
2016-08-06T04:58:24.273Z,82.4
2016-08-06T04:58:34.282Z,82.4
2016-08-06T04:58:44.293Z,82.4
2016-08-06T04:58:54.296Z,82.4
2016-08-06T04:59:04.367Z,81.9
2016-08-06T04:59:14.303Z,81.7
2016-08-06T04:59:24.309Z,81.8
2016-08-06T04:59:34.320Z,81.7
2016-08-06T04:59:44.347Z,81.6
2016-08-06T04:59:54.329Z,81.8
2016-08-06T05:00:04.392Z,81.8
2016-08-06T05:00:14.343Z,81.9
2016-08-06T05:00:24.353Z,81.3
2016-08-06T05:00:34.352Z,81.7
2016-08-06T05:00:44.360Z,81.5
2016-08-06T05:00:54.365Z,81.4
2016-08-06T05:01:04.375Z,81.4
2016-08-06T05:01:24.385Z,81.4
2016-08-06T05:01:34.389Z,81.6
2016-08-06T05:01:44.398Z,81.2
2016-08-06T05:01:54.402Z,81.5
2016-08-06T05:02:04.409Z,81.7
2016-08-06T05:02:14.457Z,81.8
2016-08-06T05:02:24.420Z,81.8
2016-08-06T05:02:34.427Z,81.5
2016-08-06T05:02:44.435Z,81.7
2016-08-06T05:02:54.443Z,81.6
2016-08-06T05:03:04.448Z,81.9
2016-08-06T05:03:14.452Z,81.4
2016-08-06T05:03:24.461Z,81.9
2016-08-06T05:03:34.464Z,81.9
2016-08-06T05:03:44.470Z,81.5
2016-08-06T05:03:54.479Z,81.9
2016-08-06T05:04:04.483Z,81.7
2016-08-06T05:04:14.495Z,81.9
2016-08-06T05:04:24.500Z,81.9
2016-08-06T05:04:34.508Z,81.7
2016-08-06T05:04:44.508Z,81.6
2016-08-06T05:04:54.527Z,81.5
2016-08-06T05:05:04.520Z,81.5
2016-08-06T05:05:14.533Z,81.7
2016-08-06T05:05:24.536Z,82.1
2016-08-06T05:05:34.544Z,81.7
2016-08-06T05:05:44.557Z,81.7
2016-08-06T05:05:54.551Z,81.8
2016-08-06T05:06:04.559Z,81.8
2016-08-06T05:06:14.568Z,81.9
2016-08-06T05:06:24.573Z,81.7
2016-08-06T05:06:34.587Z,82.3
2016-08-06T05:06:44.586Z,82.2
2016-08-06T05:06:54.591Z,81.8
2016-08-06T05:07:04.598Z,82.4
2016-08-06T05:07:14.608Z,82.4
2016-08-06T05:07:24.612Z,82.4
2016-08-06T05:07:34.619Z,82.3
2016-08-06T05:07:44.626Z,81.8
2016-08-06T05:07:54.633Z,82
2016-08-06T05:08:04.637Z,82.4
2016-08-06T05:08:14.643Z,82.3
2016-08-06T05:08:24.648Z,81.7
2016-08-06T05:08:34.655Z,81.7
2016-08-06T05:08:44.663Z,81.6
2016-08-06T05:08:54.670Z,81.7
2016-08-06T05:09:04.677Z,81.9
2016-08-06T05:09:14.682Z,81.2
2016-08-06T05:09:24.688Z,81.4
2016-08-06T05:09:34.695Z,81.3
2016-08-06T05:09:44.702Z,81.3
2016-08-06T05:09:54.707Z,81.2
2016-08-06T05:10:04.713Z,81.3
2016-08-06T05:10:14.721Z,81.9
2016-08-06T05:10:24.726Z,81.6
2016-08-06T05:10:34.734Z,81.6
2016-08-06T05:10:44.740Z,81.2
2016-08-06T05:10:54.752Z,81.2
2016-08-06T05:11:04.752Z,81.6
2016-08-06T05:11:14.757Z,81.5
2016-08-06T05:11:24.766Z,81.5
2016-08-06T05:11:34.772Z,81.4
2016-08-06T05:11:44.829Z,81.5
2016-08-06T05:11:54.793Z,81.5
2016-08-06T05:12:04.793Z,81.6
2016-08-06T05:12:14.795Z,81.5
2016-08-06T05:12:24.817Z,81.5
2016-08-06T05:12:34.809Z,81.3
2016-08-06T05:12:44.827Z,81.5
2016-08-06T05:12:54.823Z,81.6
2016-08-06T05:13:04.836Z,81.5
2016-08-06T05:13:14.835Z,81.7
2016-08-06T05:13:24.842Z,81.7
2016-08-06T05:13:34.847Z,81.8
2016-08-06T05:13:44.866Z,81.4
2016-08-06T05:13:54.862Z,81.3
2016-08-06T05:14:04.868Z,81.8
2016-08-06T05:14:14.874Z,81.5
2016-08-06T05:14:24.879Z,81.9
2016-08-06T05:14:34.887Z,81.6
2016-08-06T05:14:44.896Z,81.6
2016-08-06T05:14:54.899Z,81.5
2016-08-06T05:15:04.905Z,81.6
2016-08-06T05:15:14.911Z,81.5
2016-08-06T05:15:24.920Z,81.5
2016-08-06T05:15:34.926Z,81.6
2016-08-06T05:15:44.982Z,81.7
2016-08-06T05:15:54.946Z,81.4
2016-08-06T05:16:04.946Z,81.7
2016-08-06T05:16:24.959Z,81.7
2016-08-06T05:16:34.964Z,81.5
2016-08-06T05:16:44.985Z,81.5
2016-08-06T05:16:54.980Z,81.5
2016-08-06T05:17:04.986Z,81.7
2016-08-06T05:17:14.991Z,81.5
2016-08-06T05:17:25.003Z,81.7
2016-08-06T05:17:35.010Z,81.8
2016-08-06T05:17:45.010Z,81.6
2016-08-06T05:17:55.016Z,81.5
2016-08-06T05:18:05.022Z,81.7
2016-08-06T05:18:15.054Z,81.7
2016-08-06T05:18:25.036Z,81.7
2016-08-06T05:18:35.045Z,81.5
2016-08-06T05:18:45.048Z,81.8
2016-08-06T05:18:55.114Z,81.5
2016-08-06T05:19:05.063Z,81.6
2016-08-06T05:19:15.068Z,81.6
2016-08-06T05:19:25.075Z,81.7
2016-08-06T05:19:35.133Z,81.7
2016-08-06T05:19:45.090Z,81.5
2016-08-06T05:19:55.098Z,81.6
2016-08-06T05:20:05.102Z,81.7
2016-08-06T05:20:15.148Z,81.8
2016-08-06T05:20:25.116Z,81.6
2016-08-06T05:20:35.127Z,81.7
2016-08-06T05:20:45.137Z,81.5
2016-08-06T05:20:55.135Z,81.5
2016-08-06T05:21:05.139Z,81.6
2016-08-06T05:21:15.147Z,81.6
2016-08-06T05:21:25.154Z,81.5
2016-08-06T05:21:35.167Z,81.5
2016-08-06T05:21:45.181Z,81.5
2016-08-06T05:21:55.174Z,81.7
2016-08-06T05:22:05.181Z,81.6
2016-08-06T05:22:15.187Z,81.8
2016-08-06T05:22:25.198Z,81.6
2016-08-06T05:22:35.203Z,81.6
2016-08-06T05:22:45.208Z,81.6
2016-08-06T05:22:55.212Z,81.5
2016-08-06T05:23:05.222Z,81.6
2016-08-06T05:23:15.226Z,81.5
2016-08-06T05:23:25.231Z,81.6
2016-08-06T05:23:35.240Z,81.7
2016-08-06T05:23:45.248Z,81.7
2016-08-06T05:23:55.253Z,81.4
2016-08-06T05:24:05.260Z,81.6
2016-08-06T05:24:15.270Z,81.7
2016-08-06T05:24:25.273Z,81.5
2016-08-06T05:24:35.290Z,81.6
2016-08-06T05:24:45.286Z,81.7
2016-08-06T05:24:55.293Z,81.3
2016-08-06T05:25:05.298Z,81.5
2016-08-06T05:25:15.306Z,81.5
2016-08-06T05:25:25.314Z,81
2016-08-06T05:25:35.325Z,81.5
2016-08-06T05:25:45.327Z,81.5
2016-08-06T05:25:55.332Z,81.1
2016-08-06T05:26:05.338Z,81.5
2016-08-06T05:26:15.346Z,81.4
2016-08-06T05:26:25.351Z,81.4
2016-08-06T05:26:35.357Z,81.2
2016-08-06T05:26:45.365Z,81.4
2016-08-06T05:26:55.373Z,81.3
2016-08-06T05:27:05.385Z,81.2
2016-08-06T05:27:15.385Z,81.8
2016-08-06T05:27:25.391Z,81.4
2016-08-06T05:27:35.399Z,81.3
2016-08-06T05:27:45.405Z,81.4
2016-08-06T05:27:55.412Z,81.5
2016-08-06T05:28:05.421Z,80.9
2016-08-06T05:28:15.425Z,80.9
2016-08-06T05:28:25.436Z,80.7
2016-08-06T05:28:35.437Z,81.1
2016-08-06T05:28:45.446Z,81.3
2016-08-06T05:28:55.452Z,81
2016-08-06T05:29:05.458Z,81.3
2016-08-06T05:29:15.522Z,81.1
2016-08-06T05:29:25.471Z,80.9
2016-08-06T05:29:35.477Z,80.7
2016-08-06T05:29:45.485Z,80.6
2016-08-06T05:29:55.493Z,80.3
2016-08-06T05:30:05.499Z,80.7
2016-08-06T05:30:15.536Z,80.8
2016-08-06T05:30:25.509Z,80.9
2016-08-06T05:30:35.517Z,80.8
2016-08-06T05:30:45.525Z,81.1
2016-08-06T05:30:55.536Z,81
2016-08-06T05:31:05.539Z,80.9
2016-08-06T05:31:15.545Z,81.1
2016-08-06T05:31:35.559Z,80.4
2016-08-06T05:31:45.564Z,80.3
2016-08-06T05:31:55.572Z,80.4
2016-08-06T05:32:05.577Z,80.7
2016-08-06T05:32:15.586Z,80.7
2016-08-06T05:32:25.595Z,81.1
2016-08-06T05:32:35.657Z,81
2016-08-06T05:32:45.603Z,81.1
2016-08-06T05:32:55.610Z,81.4
2016-08-06T05:33:05.627Z,81
2016-08-06T05:33:15.625Z,81
2016-08-06T05:33:25.632Z,81
2016-08-06T05:33:35.648Z,81.1
2016-08-06T05:33:45.772Z,81.1
2016-08-06T05:33:55.650Z,80.7
2016-08-06T05:34:05.659Z,81
2016-08-06T05:34:15.665Z,80.6
2016-08-06T05:34:25.675Z,80.9
2016-08-06T05:34:35.677Z,80.4
2016-08-06T05:34:45.684Z,80.8
2016-08-06T05:34:55.689Z,80.9
2016-08-06T05:35:05.699Z,80.8
2016-08-06T05:35:15.705Z,80.6
2016-08-06T05:35:25.710Z,80.9
2016-08-06T05:35:35.719Z,80.5
2016-08-06T05:35:45.725Z,80.6
2016-08-06T05:35:55.730Z,80.5
2016-08-06T05:36:05.737Z,80.8
2016-08-06T05:36:15.746Z,80.5
2016-08-06T05:36:25.760Z,80.6
2016-08-06T05:36:35.758Z,80.5
2016-08-06T05:36:45.764Z,80.7
2016-08-06T05:36:55.772Z,80.7
2016-08-06T05:37:05.776Z,80.2
2016-08-06T05:37:15.786Z,80.5
2016-08-06T05:37:25.792Z,80.5
2016-08-06T05:37:35.798Z,80.5
2016-08-06T05:37:45.852Z,80.5
2016-08-06T05:37:55.811Z,80.2
2016-08-06T05:38:05.818Z,80.2
2016-08-06T05:38:15.828Z,80.7
2016-08-06T05:38:25.832Z,80.6
2016-08-06T05:38:35.838Z,80.6
2016-08-06T05:38:45.845Z,80.7
2016-08-06T05:38:55.852Z,80.6
2016-08-06T05:39:05.890Z,80.5
2016-08-06T05:39:15.866Z,80.8
2016-08-06T05:39:25.873Z,80.6
2016-08-06T05:39:35.879Z,80.6
2016-08-06T05:39:45.885Z,80.6
2016-08-06T05:39:55.893Z,80.8
2016-08-06T05:40:05.899Z,80.7
2016-08-06T05:40:15.904Z,80.3
2016-08-06T05:40:25.912Z,80.6
2016-08-06T05:40:35.918Z,80.5
2016-08-06T05:40:45.924Z,80.8
2016-08-06T05:40:55.931Z,80.8
2016-08-06T05:41:06.098Z,81
2016-08-06T05:41:15.953Z,80.8
2016-08-06T05:41:25.952Z,80.2
2016-08-06T05:41:35.960Z,80.6
2016-08-06T05:41:46.026Z,80.7
2016-08-06T05:41:55.971Z,80.2
2016-08-06T05:42:05.979Z,80.4
2016-08-06T05:42:15.986Z,80.2
2016-08-06T05:42:26.056Z,80.2
2016-08-06T05:42:35.999Z,80.6
2016-08-06T05:42:46.006Z,80.6
2016-08-06T05:42:56.011Z,80.4
2016-08-06T05:43:06.045Z,80.2
2016-08-06T05:43:16.026Z,80.4
2016-08-06T05:43:26.075Z,80.2
2016-08-06T05:43:36.040Z,80.3
2016-08-06T05:43:46.045Z,80.3
2016-08-06T05:43:56.057Z,80.4
2016-08-06T05:44:06.062Z,80.4
2016-08-06T05:44:16.070Z,80.6
2016-08-06T05:44:26.073Z,80.5
2016-08-06T05:44:36.111Z,80.2
2016-08-06T05:44:46.092Z,80.3
2016-08-06T05:44:56.095Z,80.7
2016-08-06T05:45:06.100Z,80.2
2016-08-06T05:45:16.113Z,80.6
2016-08-06T05:45:26.115Z,80.3
2016-08-06T05:45:36.120Z,80.2
2016-08-06T05:45:46.127Z,80.9
2016-08-06T05:45:56.134Z,80.4
2016-08-06T05:46:06.140Z,80.2
2016-08-06T05:46:16.698Z,80.6
2016-08-06T05:46:36.161Z,80.9
2016-08-06T05:46:46.167Z,80.8
2016-08-06T05:46:56.173Z,80.8
2016-08-06T05:47:06.181Z,80.5
2016-08-06T05:47:16.186Z,80.6
2016-08-06T05:47:26.195Z,80.7
2016-08-06T05:47:36.201Z,80.7
2016-08-06T05:47:46.206Z,80.9
2016-08-06T05:47:56.214Z,80.6
2016-08-06T05:48:06.221Z,80.3
2016-08-06T05:48:16.230Z,80.2
2016-08-06T05:48:26.237Z,80.5
2016-08-06T05:48:36.242Z,80.7
2016-08-06T05:48:46.247Z,80.8
2016-08-06T05:48:56.256Z,80.4
2016-08-06T05:49:06.266Z,80.7
2016-08-06T05:49:16.271Z,81
2016-08-06T05:49:26.276Z,81
2016-08-06T05:49:36.282Z,80.6
2016-08-06T05:49:46.288Z,81
2016-08-06T05:49:56.294Z,80.5
2016-08-06T05:50:06.302Z,80.9
2016-08-06T05:50:16.311Z,80.7
2016-08-06T05:50:26.315Z,80.6
2016-08-06T05:50:36.322Z,80.9
2016-08-06T05:50:46.330Z,80.3
2016-08-06T05:50:56.335Z,80.6
2016-08-06T05:51:06.345Z,80.5
2016-08-06T05:51:16.354Z,80.6
2016-08-06T05:51:26.357Z,80.7
2016-08-06T05:51:36.364Z,80.2
2016-08-06T05:51:46.369Z,80.2
2016-08-06T05:51:56.376Z,80.4
2016-08-06T05:52:06.383Z,80.4
2016-08-06T05:52:16.393Z,80.2
2016-08-06T05:52:26.397Z,80.7
2016-08-06T05:52:36.403Z,80.4
2016-08-06T05:52:46.410Z,80.4
2016-08-06T05:52:56.417Z,79.9
2016-08-06T05:53:06.424Z,80.3
2016-08-06T05:53:16.431Z,80.1
2016-08-06T05:53:26.437Z,80.4
2016-08-06T05:53:36.445Z,80.4
2016-08-06T05:53:46.456Z,80.3
2016-08-06T05:53:56.456Z,80.4
2016-08-06T05:54:06.463Z,80.4
2016-08-06T05:54:16.472Z,80.3
2016-08-06T05:54:26.479Z,80.2
2016-08-06T05:54:36.484Z,80.4
2016-08-06T05:54:46.518Z,80.3
2016-08-06T05:54:56.496Z,80.1
2016-08-06T05:55:06.505Z,80.3
2016-08-06T05:55:16.513Z,80.4
2016-08-06T05:55:26.524Z,80.4
2016-08-06T05:55:36.526Z,80.3
2016-08-06T05:55:46.530Z,80.1
2016-08-06T05:55:56.538Z,80.4
2016-08-06T05:56:06.545Z,80.4
2016-08-06T05:56:16.553Z,80.3
2016-08-06T05:56:26.558Z,80.3
2016-08-06T05:56:36.565Z,80.2
2016-08-06T05:56:46.580Z,80.4
2016-08-06T05:56:56.610Z,80.1
2016-08-06T05:57:06.585Z,80.4
2016-08-06T05:57:16.595Z,80.4
2016-08-06T05:57:26.602Z,80.3
2016-08-06T05:57:36.606Z,80.8
2016-08-06T05:57:46.614Z,80.3
2016-08-06T05:57:56.620Z,80.5
2016-08-06T05:58:06.627Z,80.3
2016-08-06T05:58:16.634Z,80.4
2016-08-06T05:58:26.644Z,80.2
2016-08-06T05:58:36.648Z,80.2
2016-08-06T05:58:46.659Z,80.3
2016-08-06T05:58:56.666Z,80.4
2016-08-06T05:59:06.669Z,80.3
2016-08-06T05:59:16.675Z,80.2
2016-08-06T05:59:26.682Z,80.6
2016-08-06T05:59:36.688Z,80.4
2016-08-06T05:59:46.694Z,80.4
2016-08-06T05:59:56.704Z,80.4
2016-08-06T06:00:06.711Z,80.3
2016-08-06T06:00:16.717Z,80.4
2016-08-06T06:00:26.722Z,80.1
2016-08-06T06:00:36.732Z,80.4
2016-08-06T06:00:46.734Z,80.4
2016-08-06T06:00:56.743Z,80.6
2016-08-06T06:01:06.749Z,80.5
2016-08-06T06:01:16.756Z,80.3
2016-08-06T06:01:36.770Z,80.6
2016-08-06T06:01:46.775Z,80.5
2016-08-06T06:01:56.810Z,80.3
2016-08-06T06:02:06.789Z,80.3
2016-08-06T06:02:16.797Z,80.3
2016-08-06T06:02:26.803Z,80.3
2016-08-06T06:02:36.808Z,80.6
2016-08-06T06:02:46.817Z,80.8
2016-08-06T06:02:56.823Z,80.8
2016-08-06T06:03:06.832Z,80.6
2016-08-06T06:03:16.840Z,80.5
2016-08-06T06:03:26.844Z,80.8
2016-08-06T06:03:36.853Z,80.9
2016-08-06T06:03:46.859Z,80.6
2016-08-06T06:03:56.876Z,80.7
2016-08-06T06:04:06.913Z,80.7
2016-08-06T06:04:16.878Z,80.7
2016-08-06T06:04:26.885Z,80.7
2016-08-06T06:04:36.895Z,80.7
2016-08-06T06:04:46.897Z,80.6
2016-08-06T06:04:56.905Z,80.6
2016-08-06T06:05:06.910Z,80.6
2016-08-06T06:05:16.921Z,80.7
2016-08-06T06:05:26.926Z,80.6
2016-08-06T06:05:36.933Z,80.7
2016-08-06T06:05:46.940Z,80.7
2016-08-06T06:05:56.949Z,80.8
2016-08-06T06:06:06.953Z,80.6
2016-08-06T06:06:16.962Z,80.9
2016-08-06T06:06:26.969Z,80.3
2016-08-06T06:06:36.977Z,80.2
2016-08-06T06:06:46.992Z,80.6
2016-08-06T06:06:56.986Z,80.4
2016-08-06T06:07:06.996Z,80.2
2016-08-06T06:07:17.011Z,81
2016-08-06T06:07:27.009Z,80.8
2016-08-06T06:07:37.015Z,80.8
2016-08-06T06:07:47.020Z,80.7
2016-08-06T06:07:57.029Z,80.7
2016-08-06T06:08:07.033Z,80.8
2016-08-06T06:08:17.040Z,80.9
2016-08-06T06:08:27.049Z,80.7
2016-08-06T06:08:37.054Z,81
2016-08-06T06:08:47.067Z,80.9
2016-08-06T06:08:57.067Z,80.8
2016-08-06T06:09:07.075Z,80.9
2016-08-06T06:09:17.081Z,80.7
2016-08-06T06:09:27.088Z,80.6
2016-08-06T06:09:37.095Z,80.6
2016-08-06T06:09:47.102Z,80.5
2016-08-06T06:09:57.106Z,80.9
2016-08-06T06:10:07.115Z,80.8
2016-08-06T06:10:17.123Z,80.8
2016-08-06T06:10:27.127Z,80.7
2016-08-06T06:10:37.135Z,80.8
2016-08-06T06:10:47.147Z,80.7
2016-08-06T06:10:57.151Z,80.7
2016-08-06T06:11:07.160Z,80.7
2016-08-06T06:11:17.200Z,80.6
2016-08-06T06:11:27.168Z,80.8
2016-08-06T06:11:37.177Z,80.2
2016-08-06T06:11:47.184Z,80.7
2016-08-06T06:11:57.190Z,80.6
2016-08-06T06:12:07.197Z,80.1
2016-08-06T06:12:17.203Z,80.2
2016-08-06T06:12:27.214Z,80.1
2016-08-06T06:12:37.217Z,80.5
2016-08-06T06:12:47.223Z,80.2
2016-08-06T06:12:57.232Z,80.2
2016-08-06T06:13:07.236Z,81
2016-08-06T06:13:17.243Z,80.2
2016-08-06T06:13:27.251Z,80.2
2016-08-06T06:13:37.259Z,80.3
2016-08-06T06:13:47.265Z,80.2
2016-08-06T06:13:57.270Z,80.2
2016-08-06T06:14:07.278Z,80.5
2016-08-06T06:14:17.286Z,80.2
2016-08-06T06:14:27.293Z,80.4
2016-08-06T06:14:37.299Z,80.4
2016-08-06T06:14:47.305Z,80.7
2016-08-06T06:14:57.310Z,80.3
2016-08-06T06:15:07.319Z,80.6
2016-08-06T06:15:17.325Z,80.8
2016-08-06T06:15:27.331Z,80.4
2016-08-06T06:15:37.340Z,80.6
2016-08-06T06:15:47.345Z,80.4
2016-08-06T06:15:57.353Z,80.4
2016-08-06T06:16:07.360Z,80.5
2016-08-06T06:16:17.366Z,80.7
2016-08-06T06:16:37.378Z,80.4
2016-08-06T06:16:47.386Z,80.7
2016-08-06T06:16:57.393Z,80.1
2016-08-06T06:17:07.401Z,80.4
2016-08-06T06:17:17.408Z,80.4
2016-08-06T06:17:27.417Z,80.4
2016-08-06T06:17:37.420Z,80.4
2016-08-06T06:17:47.431Z,80.6
2016-08-06T06:17:57.435Z,80.4
2016-08-06T06:18:07.441Z,80.6
2016-08-06T06:18:17.448Z,80.4
2016-08-06T06:18:27.455Z,80.2
2016-08-06T06:18:37.461Z,80.1
2016-08-06T06:18:47.475Z,80.5
2016-08-06T06:18:57.476Z,80.2
2016-08-06T06:19:07.481Z,80.3
2016-08-06T06:19:17.495Z,80.3
2016-08-06T06:19:27.494Z,80.3
2016-08-06T06:19:37.505Z,80.3
2016-08-06T06:19:47.507Z,80.3
2016-08-06T06:19:57.522Z,80.6
2016-08-06T06:20:07.523Z,80.4
2016-08-06T06:20:17.527Z,80.2
2016-08-06T06:20:27.534Z,80.4
2016-08-06T06:20:37.551Z,80.3
2016-08-06T06:20:47.552Z,80
2016-08-06T06:20:57.556Z,80.1
2016-08-06T06:21:07.564Z,80.4
2016-08-06T06:21:18.244Z,80.5
2016-08-06T06:21:27.577Z,80.3
2016-08-06T06:21:37.583Z,80.3
2016-08-06T06:21:47.592Z,80.2
2016-08-06T06:21:57.596Z,80.5
2016-08-06T06:22:07.603Z,80.3
2016-08-06T06:22:17.610Z,80.4
2016-08-06T06:22:27.618Z,80.5
2016-08-06T06:22:37.623Z,80.6
2016-08-06T06:22:47.652Z,80.3
2016-08-06T06:22:57.638Z,80.4
2016-08-06T06:23:07.646Z,80.5
2016-08-06T06:23:17.651Z,80.3
2016-08-06T06:23:27.656Z,80.3
2016-08-06T06:23:37.666Z,80.3
2016-08-06T06:23:47.673Z,80.2
2016-08-06T06:23:57.678Z,80.6
2016-08-06T06:24:07.686Z,80.1
2016-08-06T06:24:17.692Z,80.1
2016-08-06T06:24:27.698Z,80.1
2016-08-06T06:24:37.705Z,80.3
2016-08-06T06:24:47.712Z,80.1
2016-08-06T06:24:57.719Z,80.2
2016-08-06T06:25:07.728Z,80.4
2016-08-06T06:25:17.736Z,80.3
2016-08-06T06:25:27.740Z,80.2
2016-08-06T06:25:37.747Z,79.9
2016-08-06T06:25:47.754Z,80.4
2016-08-06T06:25:57.760Z,80.3
2016-08-06T06:26:07.767Z,80
2016-08-06T06:26:17.777Z,80.1
2016-08-06T06:26:27.780Z,80
2016-08-06T06:26:37.833Z,79.9
2016-08-06T06:26:47.796Z,80
2016-08-06T06:26:57.801Z,80
2016-08-06T06:27:07.808Z,80
2016-08-06T06:27:17.820Z,79.9
2016-08-06T06:27:27.821Z,79.9
2016-08-06T06:27:37.828Z,80
2016-08-06T06:27:47.835Z,80.1
2016-08-06T06:27:57.843Z,79.9
2016-08-06T06:28:07.849Z,79.8
2016-08-06T06:28:17.855Z,80.3
2016-08-06T06:28:27.862Z,80
2016-08-06T06:28:37.868Z,79.9
2016-08-06T06:28:47.875Z,79.8
2016-08-06T06:28:57.888Z,79.9
2016-08-06T06:29:07.891Z,80.4
2016-08-06T06:29:17.897Z,80.1
2016-08-06T06:29:27.907Z,80.1
2016-08-06T06:29:37.908Z,80.6
2016-08-06T06:29:47.919Z,80.2
2016-08-06T06:29:57.923Z,80.4
2016-08-06T06:30:07.930Z,79.7
2016-08-06T06:30:17.937Z,80.5
2016-08-06T06:30:27.945Z,80.6
2016-08-06T06:30:37.952Z,80.2
2016-08-06T06:30:47.957Z,80.4
2016-08-06T06:30:57.966Z,80.4
2016-08-06T06:31:07.972Z,80.1
2016-08-06T06:31:17.977Z,80.1
2016-08-06T06:31:27.985Z,80.2
2016-08-06T06:31:47.998Z,80.8
2016-08-06T06:31:58.006Z,80.8
2016-08-06T06:32:08.014Z,80.3
2016-08-06T06:32:18.018Z,80.4
2016-08-06T06:32:28.035Z,80.3
2016-08-06T06:32:38.035Z,80.5
2016-08-06T06:32:48.042Z,80.4
2016-08-06T06:32:58.047Z,80.4
2016-08-06T06:33:08.053Z,80.2
2016-08-06T06:33:18.059Z,80.4
2016-08-06T06:33:28.068Z,80.5
2016-08-06T06:33:38.074Z,80.1
2016-08-06T06:33:48.080Z,80.3
2016-08-06T06:33:58.089Z,80.1
2016-08-06T06:34:08.093Z,80.5
2016-08-06T06:34:18.103Z,80.1
2016-08-06T06:34:28.108Z,80.6
2016-08-06T06:34:38.114Z,80.4
2016-08-06T06:34:48.121Z,80.5
2016-08-06T06:34:58.130Z,80.5
2016-08-06T06:35:08.135Z,80.4
2016-08-06T06:35:18.139Z,80.5
2016-08-06T06:35:28.147Z,80
2016-08-06T06:35:38.155Z,80.2
2016-08-06T06:35:48.164Z,80.4
2016-08-06T06:35:58.169Z,80.3
2016-08-06T06:36:08.176Z,80.5
2016-08-06T06:36:18.181Z,80.1
2016-08-06T06:36:28.189Z,80.5
2016-08-06T06:36:38.194Z,80.1
2016-08-06T06:36:48.202Z,80.2
2016-08-06T06:36:58.211Z,80.5
2016-08-06T06:37:08.216Z,80.5
2016-08-06T06:37:18.223Z,80.3
2016-08-06T06:37:28.230Z,80.1
2016-08-06T06:37:38.236Z,80.2
2016-08-06T06:37:48.242Z,80.3
2016-08-06T06:37:58.250Z,80.3
2016-08-06T06:38:08.257Z,80.4
2016-08-06T06:38:18.267Z,80.6
2016-08-06T06:38:28.272Z,80.5
2016-08-06T06:38:38.277Z,80.2
2016-08-06T06:38:48.286Z,80.6
2016-08-06T06:38:58.291Z,80.6
2016-08-06T06:39:08.298Z,80.5
2016-08-06T06:39:18.303Z,80.6
2016-08-06T06:39:28.309Z,80.3
2016-08-06T06:39:38.318Z,80.4
2016-08-06T06:39:48.325Z,80.4
2016-08-06T06:39:58.336Z,80.6
2016-08-06T06:40:08.340Z,80.3
2016-08-06T06:40:18.350Z,80.1
2016-08-06T06:40:28.351Z,80.3
2016-08-06T06:40:38.358Z,80
2016-08-06T06:40:48.365Z,80.2
2016-08-06T06:40:58.373Z,80.1
2016-08-06T06:41:08.378Z,80.2
2016-08-06T06:41:18.385Z,80
2016-08-06T06:41:28.399Z,79.9
2016-08-06T06:41:38.399Z,79.6
2016-08-06T06:41:48.412Z,79.4
2016-08-06T06:41:58.412Z,79.9
2016-08-06T06:42:08.421Z,80.1
2016-08-06T06:42:18.427Z,79.4
2016-08-06T06:42:28.433Z,80
2016-08-06T06:42:38.440Z,79.9
2016-08-06T06:42:48.448Z,80.1
2016-08-06T06:42:58.456Z,80.2
2016-08-06T06:43:08.465Z,79.8
2016-08-06T06:43:18.466Z,79.9
2016-08-06T06:43:28.475Z,80
2016-08-06T06:43:38.480Z,79.7
2016-08-06T06:43:48.488Z,79.6
2016-08-06T06:43:58.495Z,79.4
2016-08-06T06:44:08.505Z,79.5
2016-08-06T06:44:18.508Z,79.2
2016-08-06T06:44:28.516Z,79.8
2016-08-06T06:44:38.522Z,79.3
2016-08-06T06:44:48.533Z,79.2
2016-08-06T06:44:58.537Z,79.4
2016-08-06T06:45:08.543Z,79.5
2016-08-06T06:45:18.550Z,79.4
2016-08-06T06:45:28.557Z,79.7
2016-08-06T06:45:38.566Z,79.2
2016-08-06T06:45:48.570Z,79.1
2016-08-06T06:45:58.578Z,79.5
2016-08-06T06:46:08.585Z,79.7
2016-08-06T06:46:18.596Z,79.6
2016-08-06T06:46:28.598Z,79.6
2016-08-06T06:46:48.614Z,79.6
2016-08-06T06:46:58.619Z,79.1
2016-08-06T06:47:08.626Z,79.4
2016-08-06T06:47:18.632Z,79.2
2016-08-06T06:47:28.639Z,79.5
2016-08-06T06:47:38.649Z,79.4
2016-08-06T06:47:48.656Z,79.4
2016-08-06T06:47:58.661Z,79.2
2016-08-06T06:48:08.668Z,79.1
2016-08-06T06:48:18.673Z,79.3
2016-08-06T06:48:28.680Z,78.8
2016-08-06T06:48:38.687Z,79.1
2016-08-06T06:48:48.694Z,79.4
2016-08-06T06:48:58.701Z,79
2016-08-06T06:49:08.717Z,78.9
2016-08-06T06:49:18.716Z,78.9
2016-08-06T06:49:28.721Z,78.7
2016-08-06T06:49:38.733Z,79
2016-08-06T06:49:48.736Z,78.7
2016-08-06T06:49:58.741Z,79.1
2016-08-06T06:50:08.753Z,78.7
2016-08-06T06:50:18.759Z,78.6
2016-08-06T06:50:28.762Z,78.6
2016-08-06T06:50:38.776Z,78.8
2016-08-06T06:50:48.777Z,78.7
2016-08-06T06:50:58.786Z,78.6
2016-08-06T06:51:08.792Z,78.7
2016-08-06T06:51:18.798Z,78.6
2016-08-06T06:51:28.803Z,78.9
2016-08-06T06:51:38.811Z,79
2016-08-06T06:51:48.818Z,78.9
2016-08-06T06:51:58.826Z,78.6
2016-08-06T06:52:08.834Z,78.6
2016-08-06T06:52:18.840Z,78.6
2016-08-06T06:52:28.845Z,78.6
2016-08-06T06:52:38.853Z,79.2
2016-08-06T06:52:48.860Z,78.7
2016-08-06T06:52:58.867Z,78.7
2016-08-06T06:53:08.876Z,78.9
2016-08-06T06:53:18.880Z,78.6
2016-08-06T06:53:28.887Z,78.3
2016-08-06T06:53:38.895Z,78.4
2016-08-06T06:53:48.905Z,78.3
2016-08-06T06:53:58.908Z,78.7
2016-08-06T06:54:08.914Z,78.8
2016-08-06T06:54:18.924Z,78.9
2016-08-06T06:54:28.928Z,78.5
2016-08-06T06:54:38.939Z,78.4
2016-08-06T06:54:48.943Z,78.4
2016-08-06T06:54:58.950Z,78.3
2016-08-06T06:55:08.956Z,78.4
2016-08-06T06:55:18.961Z,78.3
2016-08-06T06:55:28.973Z,78.6
2016-08-06T06:55:38.981Z,78.4
2016-08-06T06:55:48.983Z,78.4
2016-08-06T06:55:58.990Z,78.6
2016-08-06T06:56:08.997Z,78.7
2016-08-06T06:56:19.006Z,78.5
2016-08-06T06:56:29.015Z,78.3
2016-08-06T06:56:39.018Z,78.6
2016-08-06T06:56:49.028Z,78.4
2016-08-06T06:56:59.042Z,78.8
2016-08-06T06:57:09.038Z,78.7
2016-08-06T06:57:19.045Z,78.5
2016-08-06T06:57:29.054Z,79
2016-08-06T06:57:39.060Z,79.3
2016-08-06T06:57:49.074Z,78.5
2016-08-06T06:57:59.074Z,78.5
2016-08-06T06:58:09.082Z,79.1
2016-08-06T06:58:19.088Z,78.6
2016-08-06T06:58:29.095Z,78.8
2016-08-06T06:58:39.103Z,78.9
2016-08-06T06:58:49.111Z,78.5
2016-08-06T06:58:59.117Z,78.9
2016-08-06T06:59:09.123Z,78.3
2016-08-06T06:59:19.131Z,78.4
2016-08-06T06:59:29.139Z,78.8
2016-08-06T06:59:39.143Z,78.6
2016-08-06T06:59:49.151Z,78.4
2016-08-06T06:59:59.158Z,78.7
2016-08-06T07:00:09.165Z,78.4
2016-08-06T07:00:19.171Z,78.4
2016-08-06T07:00:29.226Z,78.5
2016-08-06T07:00:39.185Z,78.5
2016-08-06T07:00:49.192Z,78.7
2016-08-06T07:00:59.210Z,78.7
2016-08-06T07:01:09.206Z,78.6
2016-08-06T07:01:19.212Z,78.1
2016-08-06T07:01:29.221Z,78.2
2016-08-06T07:01:49.236Z,78.3
2016-08-06T07:01:59.241Z,78.9
2016-08-06T07:02:09.251Z,78.5
2016-08-06T07:02:19.255Z,79
2016-08-06T07:02:29.263Z,78.8
2016-08-06T07:02:39.269Z,78.8
2016-08-06T07:02:49.277Z,78.9
2016-08-06T07:02:59.282Z,78.6
2016-08-06T07:03:09.290Z,78.6
2016-08-06T07:03:19.296Z,79.1
2016-08-06T07:03:29.306Z,78.7
2016-08-06T07:03:39.311Z,78.8
2016-08-06T07:03:49.317Z,79
2016-08-06T07:03:59.353Z,79.1
2016-08-06T07:04:09.339Z,78.4
2016-08-06T07:04:19.338Z,78.3
2016-08-06T07:04:29.346Z,78.4
2016-08-06T07:04:39.355Z,79
2016-08-06T07:04:49.359Z,78.9
2016-08-06T07:04:59.368Z,78.6
2016-08-06T07:05:09.373Z,78.7
2016-08-06T07:05:19.380Z,78.9
2016-08-06T07:05:29.390Z,78.7
2016-08-06T07:05:39.393Z,78.3
2016-08-06T07:05:49.403Z,78.8
2016-08-06T07:05:59.408Z,78.6
2016-08-06T07:06:09.415Z,78.3
2016-08-06T07:06:19.422Z,78.6
2016-08-06T07:06:29.434Z,78.2
2016-08-06T07:06:39.437Z,78.4
2016-08-06T07:06:49.444Z,78.7
2016-08-06T07:06:59.452Z,78.7
2016-08-06T07:07:09.460Z,78.6
2016-08-06T07:07:19.463Z,78.7
2016-08-06T07:07:29.472Z,78.6
2016-08-06T07:07:39.528Z,78.7
2016-08-06T07:07:49.485Z,78.7
2016-08-06T07:07:59.493Z,78.7
2016-08-06T07:08:09.499Z,78.6
2016-08-06T07:08:19.507Z,78.7
2016-08-06T07:08:29.511Z,78.6
2016-08-06T07:08:39.519Z,78.6
2016-08-06T07:08:49.526Z,78.4
2016-08-06T07:08:59.536Z,78.6
2016-08-06T07:09:09.541Z,78.6
2016-08-06T07:09:19.547Z,78.4
2016-08-06T07:09:29.557Z,78.3
2016-08-06T07:09:39.560Z,78.3
2016-08-06T07:09:49.568Z,78.2
2016-08-06T07:09:59.576Z,78.1
2016-08-06T07:10:09.582Z,77.9
2016-08-06T07:10:19.590Z,78.3
2016-08-06T07:10:29.598Z,78
2016-08-06T07:10:39.603Z,77.9
2016-08-06T07:10:49.611Z,78.3
2016-08-06T07:10:59.618Z,78
2016-08-06T07:11:09.624Z,78.4
2016-08-06T07:11:19.631Z,78.2